KGAI/GAI METAR and TAF weather

Enter ICAO airport designator
Station Type Date Time Source
KGAI METAR 2020/11/25 22:56 UTC NOAA

KGAI 252256Z AUTO 16011G16KT 10SM BKN038 BKN047 12/06 A3019 RMK AO2 SLP237 T01220061


Station Type Date Time Source
KGAI Decoded METAR 2020/11/25 22:56 UTC NOAA

Station name not available
Nov 25, 2020 - 05:56 PM EST / 2020.11.25 2256 UTC
Wind: from the SSE (160 degrees) at 13 MPH (11 KT) gusting to 18 MPH (16 KT):0
Visibility: 10 mile(s):0
Sky conditions: mostly cloudy
Temperature: 54.0 F (12.2 C)
Dew Point: 43.0 F (6.1 C)
Relative Humidity: 66%
Pressure (altimeter): 30.19 in. Hg (1022 hPa)
ob: KGAI 252256Z AUTO 16011G16KT 10SM BKN038 BKN047 12/06 A3019 RMK AO2 SLP237 T01220061
cycle: 23

Station Type Date Time Source
KGAI TAF UTC NOAA

Error!

Example: see airport list